createdAt,value
2023-05-01T00:00:04.000Z,3.16
2023-05-01T00:01:04.000Z,3.12
2023-05-01T00:02:04.000Z,3.12
2023-05-01T00:03:04.000Z,3.10
2023-05-01T00:04:04.000Z,3.10
2023-05-01T00:05:04.000Z,3.13
2023-05-01T00:06:04.000Z,3.13
2023-05-01T00:07:04.000Z,3.07
2023-05-01T00:08:04.000Z,3.10
2023-05-01T00:09:04.000Z,3.07
2023-05-01T00:10:04.000Z,3.05
2023-05-01T00:11:04.000Z,3.03
2023-05-01T00:12:04.000Z,3.03
2023-05-01T00:13:04.000Z,3.02
2023-05-01T00:14:04.000Z,3.05
2023-05-01T00:15:04.000Z,3.06
2023-05-01T00:16:05.000Z,3.09
2023-05-01T00:17:05.000Z,3.10
2023-05-01T00:18:05.000Z,3.12
2023-05-01T00:19:05.000Z,3.18
2023-05-01T00:20:05.000Z,3.20
2023-05-01T00:21:05.000Z,3.23
2023-05-01T00:22:05.000Z,3.30
2023-05-01T00:23:05.000Z,3.34
2023-05-01T00:24:05.000Z,3.31
2023-05-01T00:25:05.000Z,3.42
2023-05-01T00:26:05.000Z,3.39
2023-05-01T00:27:05.000Z,3.42
2023-05-01T00:28:05.000Z,3.42
2023-05-01T00:29:05.000Z,3.44
2023-05-01T00:30:05.000Z,3.46
2023-05-01T00:31:05.000Z,3.44
2023-05-01T00:32:06.000Z,3.49
2023-05-01T00:33:06.000Z,3.47
2023-05-01T00:34:06.000Z,3.54
2023-05-01T00:35:06.000Z,3.58
2023-05-01T00:36:06.000Z,3.60
2023-05-01T00:37:06.000Z,3.62
2023-05-01T00:38:06.000Z,3.64
2023-05-01T00:39:06.000Z,3.65
2023-05-01T00:40:06.000Z,3.68
2023-05-01T00:41:06.000Z,3.70
2023-05-01T00:42:06.000Z,3.70
2023-05-01T00:43:06.000Z,3.71
2023-05-01T00:44:06.000Z,3.71
2023-05-01T00:45:06.000Z,3.70
2023-05-01T00:46:06.000Z,3.76
2023-05-01T00:47:07.000Z,3.78
2023-05-01T00:48:07.000Z,3.78
2023-05-01T00:49:07.000Z,3.79
2023-05-01T00:50:07.000Z,3.80
2023-05-01T00:51:07.000Z,3.80
2023-05-01T00:52:07.000Z,3.80
2023-05-01T00:53:07.000Z,3.82
2023-05-01T00:54:07.000Z,3.83
2023-05-01T00:55:07.000Z,3.79
2023-05-01T00:56:07.000Z,3.80
2023-05-01T00:57:07.000Z,3.82
2023-05-01T00:58:07.000Z,3.85
2023-05-01T00:59:07.000Z,3.80
2023-05-01T01:00:07.000Z,3.82
2023-05-01T01:01:07.000Z,3.82
2023-05-01T01:02:07.000Z,3.82
2023-05-01T01:03:08.000Z,3.86
2023-05-01T01:04:08.000Z,3.85
2023-05-01T01:05:08.000Z,3.90
2023-05-01T01:06:08.000Z,3.94
2023-05-01T01:07:08.000Z,3.92
2023-05-01T01:08:08.000Z,3.92
2023-05-01T01:09:08.000Z,3.88
2023-05-01T01:10:08.000Z,3.89
2023-05-01T01:11:08.000Z,3.88
2023-05-01T01:12:08.000Z,3.89
2023-05-01T01:13:08.000Z,3.86
2023-05-01T01:14:08.000Z,3.86
2023-05-01T01:15:08.000Z,3.88
2023-05-01T01:16:08.000Z,3.88
2023-05-01T01:17:08.000Z,3.82
2023-05-01T01:18:08.000Z,3.83
2023-05-01T01:19:08.000Z,3.86
2023-05-01T01:20:09.000Z,3.83
2023-05-01T01:21:09.000Z,3.85
2023-05-01T01:22:09.000Z,3.85
2023-05-01T01:23:09.000Z,3.83
2023-05-01T01:24:09.000Z,3.82
2023-05-01T01:25:09.000Z,3.79
2023-05-01T01:26:09.000Z,3.79
2023-05-01T01:27:09.000Z,3.78
2023-05-01T01:28:09.000Z,3.80
2023-05-01T01:29:09.000Z,3.78
2023-05-01T01:30:09.000Z,3.75
2023-05-01T01:31:09.000Z,3.72
2023-05-01T01:32:09.000Z,3.75
2023-05-01T01:33:09.000Z,3.71
2023-05-01T01:34:09.000Z,3.71
2023-05-01T01:35:10.000Z,3.70
2023-05-01T01:36:10.000Z,3.67
2023-05-01T01:37:10.000Z,3.68
2023-05-01T01:38:10.000Z,3.64
2023-05-01T01:39:10.000Z,3.65
2023-05-01T01:40:10.000Z,3.58
2023-05-01T01:41:10.000Z,3.53
2023-05-01T01:42:10.000Z,3.53
2023-05-01T01:43:10.000Z,3.50
2023-05-01T01:44:10.000Z,3.49
2023-05-01T01:45:10.000Z,3.46
2023-05-01T01:46:10.000Z,3.47
2023-05-01T01:47:10.000Z,3.44
2023-05-01T01:48:10.000Z,3.43
2023-05-01T01:49:10.000Z,3.43
2023-05-01T01:50:10.000Z,3.43
2023-05-01T01:51:10.000Z,3.40
2023-05-01T01:52:11.000Z,3.39
2023-05-01T01:53:11.000Z,3.40
2023-05-01T01:54:11.000Z,3.40
2023-05-01T01:55:11.000Z,3.36
2023-05-01T01:56:11.000Z,3.33
2023-05-01T01:57:11.000Z,3.28
2023-05-01T01:58:11.000Z,3.30
2023-05-01T01:59:11.000Z,3.25
2023-05-01T02:00:11.000Z,3.27
2023-05-01T02:01:11.000Z,3.21
2023-05-01T02:02:11.000Z,3.21
2023-05-01T02:03:11.000Z,3.15
2023-05-01T02:04:11.000Z,3.20
2023-05-01T02:05:11.000Z,3.21
2023-05-01T02:06:11.000Z,3.18
2023-05-01T02:07:12.000Z,3.18
2023-05-01T02:08:12.000Z,3.21
2023-05-01T02:09:12.000Z,3.18
2023-05-01T02:10:12.000Z,3.18
2023-05-01T02:11:12.000Z,3.18
2023-05-01T02:12:12.000Z,3.18
2023-05-01T02:13:12.000Z,3.16
2023-05-01T02:14:12.000Z,3.13
2023-05-01T02:15:12.000Z,3.15
2023-05-01T02:16:12.000Z,3.13
2023-05-01T02:17:12.000Z,3.12
2023-05-01T02:18:12.000Z,3.15
2023-05-01T02:19:12.000Z,3.09
2023-05-01T02:20:12.000Z,3.09
2023-05-01T02:21:12.000Z,3.06
2023-05-01T02:22:13.000Z,3.02
2023-05-01T02:23:13.000Z,3.02
2023-05-01T02:24:13.000Z,2.95
2023-05-01T02:25:13.000Z,2.97
2023-05-01T02:26:13.000Z,2.94
2023-05-01T02:27:13.000Z,2.89
2023-05-01T02:28:13.000Z,2.89
2023-05-01T02:29:13.000Z,2.84
2023-05-01T02:30:13.000Z,2.85
2023-05-01T02:31:13.000Z,2.77
2023-05-01T02:32:13.000Z,2.76
2023-05-01T02:33:13.000Z,2.70
2023-05-01T02:34:13.000Z,2.69
2023-05-01T02:35:13.000Z,2.67
2023-05-01T02:36:14.000Z,2.66
2023-05-01T02:37:14.000Z,2.66
2023-05-01T02:38:14.000Z,2.63
2023-05-01T02:39:14.000Z,2.66
2023-05-01T02:40:14.000Z,2.61
2023-05-01T02:41:14.000Z,2.66
2023-05-01T02:42:14.000Z,2.64
2023-05-01T02:43:14.000Z,2.59
2023-05-01T02:44:14.000Z,2.55
2023-05-01T02:45:14.000Z,2.58
2023-05-01T02:46:14.000Z,2.55
2023-05-01T02:47:14.000Z,2.52
2023-05-01T02:48:14.000Z,2.53
2023-05-01T02:49:14.000Z,2.55
2023-05-01T02:50:14.000Z,2.53
2023-05-01T02:51:15.000Z,2.53
2023-05-01T02:52:15.000Z,2.55
2023-05-01T02:53:15.000Z,2.56
2023-05-01T02:54:15.000Z,2.55
2023-05-01T02:55:15.000Z,2.61
2023-05-01T02:56:15.000Z,2.63
2023-05-01T02:57:15.000Z,2.66
2023-05-01T02:58:15.000Z,2.66
2023-05-01T02:59:15.000Z,2.66
2023-05-01T03:00:15.000Z,2.73
2023-05-01T03:01:15.000Z,2.76
2023-05-01T03:02:15.000Z,2.79
2023-05-01T03:03:15.000Z,2.84
2023-05-01T03:04:16.000Z,2.88
2023-05-01T03:05:16.000Z,2.85
2023-05-01T03:06:16.000Z,2.88
2023-05-01T03:07:16.000Z,2.92
2023-05-01T03:08:16.000Z,2.91
2023-05-01T03:09:16.000Z,2.97
2023-05-01T03:10:16.000Z,3.03
2023-05-01T03:11:16.000Z,3.07
2023-05-01T03:12:16.000Z,3.12
2023-05-01T03:13:16.000Z,3.18
2023-05-01T03:14:16.000Z,3.18
2023-05-01T03:15:16.000Z,3.20
2023-05-01T03:16:16.000Z,3.20
2023-05-01T03:17:16.000Z,3.21
2023-05-01T03:18:17.000Z,3.24
2023-05-01T03:19:17.000Z,3.21
2023-05-01T03:20:17.000Z,3.20
2023-05-01T03:21:17.000Z,3.18
2023-05-01T03:22:17.000Z,3.16
2023-05-01T03:23:17.000Z,3.13
2023-05-01T03:24:17.000Z,3.12
2023-05-01T03:25:17.000Z,3.10
2023-05-01T03:26:17.000Z,3.07
2023-05-01T03:27:17.000Z,3.09
2023-05-01T03:28:17.000Z,3.07
2023-05-01T03:29:17.000Z,3.06
2023-05-01T03:30:17.000Z,3.06
2023-05-01T03:31:17.000Z,3.05
2023-05-01T03:32:18.000Z,3.07
2023-05-01T03:33:18.000Z,3.07
2023-05-01T03:34:18.000Z,3.13
2023-05-01T03:35:18.000Z,3.15
2023-05-01T03:36:18.000Z,3.18
2023-05-01T03:37:18.000Z,3.21
2023-05-01T03:38:18.000Z,3.25
2023-05-01T03:39:18.000Z,3.28
2023-05-01T03:40:18.000Z,3.30
2023-05-01T03:41:18.000Z,3.36
2023-05-01T03:42:18.000Z,3.44
2023-05-01T03:43:18.000Z,3.44
2023-05-01T03:44:18.000Z,3.46
2023-05-01T03:45:18.000Z,3.49
2023-05-01T03:46:18.000Z,3.50
2023-05-01T03:47:19.000Z,3.50
2023-05-01T03:48:19.000Z,3.53
2023-05-01T03:49:19.000Z,3.50
2023-05-01T03:50:19.000Z,3.54
2023-05-01T03:51:19.000Z,3.57
2023-05-01T03:52:19.000Z,3.58
2023-05-01T03:53:19.000Z,3.60
2023-05-01T03:54:19.000Z,3.61
2023-05-01T03:55:19.000Z,3.70
2023-05-01T03:56:19.000Z,3.71
2023-05-01T03:57:19.000Z,3.78
2023-05-01T03:58:19.000Z,3.79
2023-05-01T03:59:19.000Z,3.88
2023-05-01T04:00:19.000Z,3.88
2023-05-01T04:01:19.000Z,3.90
2023-05-01T04:02:20.000Z,3.96
2023-05-01T04:03:20.000Z,3.94
2023-05-01T04:04:20.000Z,3.96
2023-05-01T04:05:20.000Z,3.98
2023-05-01T04:06:20.000Z,3.97
2023-05-01T04:07:20.000Z,4.00
2023-05-01T04:08:20.000Z,4.00
2023-05-01T04:09:20.000Z,4.03
2023-05-01T04:10:20.000Z,4.07
2023-05-01T04:11:20.000Z,4.04
2023-05-01T04:12:20.000Z,4.08
2023-05-01T04:13:20.000Z,4.12
2023-05-01T04:14:20.000Z,4.18
2023-05-01T04:15:20.000Z,4.18
2023-05-01T04:16:20.000Z,4.16
2023-05-01T04:17:20.000Z,4.21
2023-05-01T04:18:21.000Z,4.19
2023-05-01T04:19:21.000Z,4.19
2023-05-01T04:20:21.000Z,4.24
2023-05-01T04:21:21.000Z,4.28
2023-05-01T04:22:21.000Z,4.28
2023-05-01T04:23:21.000Z,4.28
2023-05-01T04:24:21.000Z,4.34
2023-05-01T04:25:21.000Z,4.36
2023-05-01T04:26:21.000Z,4.42
2023-05-01T04:27:21.000Z,4.39
2023-05-01T04:28:21.000Z,4.43
2023-05-01T04:29:21.000Z,4.43
2023-05-01T04:30:21.000Z,4.44
2023-05-01T04:31:21.000Z,4.50
2023-05-01T04:32:21.000Z,4.51
2023-05-01T04:33:21.000Z,4.46
2023-05-01T04:34:21.000Z,4.47
2023-05-01T04:35:22.000Z,4.46
2023-05-01T04:36:22.000Z,4.50
2023-05-01T04:37:22.000Z,4.46
2023-05-01T04:38:22.000Z,4.47
2023-05-01T04:39:22.000Z,4.51
2023-05-01T04:40:22.000Z,4.52
2023-05-01T04:41:22.000Z,4.52
2023-05-01T04:42:22.000Z,4.55
2023-05-01T04:43:22.000Z,4.58
2023-05-01T04:44:22.000Z,4.62
2023-05-01T04:45:22.000Z,4.65
2023-05-01T04:46:22.000Z,4.69
2023-05-01T04:47:22.000Z,4.73
2023-05-01T04:48:22.000Z,4.77
2023-05-01T04:49:22.000Z,4.84
2023-05-01T04:50:22.000Z,4.86
2023-05-01T04:51:22.000Z,4.89
2023-05-01T04:52:22.000Z,4.94
2023-05-01T04:53:23.000Z,4.95
2023-05-01T04:54:23.000Z,4.99
2023-05-01T04:55:23.000Z,5.02
2023-05-01T04:56:23.000Z,5.05
2023-05-01T04:57:23.000Z,5.10
2023-05-01T04:58:23.000Z,5.13
2023-05-01T04:59:23.000Z,5.19
2023-05-01T05:00:23.000Z,5.22
2023-05-01T05:01:23.000Z,5.27
2023-05-01T05:02:23.000Z,5.31
2023-05-01T05:03:23.000Z,5.34
2023-05-01T05:04:23.000Z,5.38
2023-05-01T05:05:23.000Z,5.43
2023-05-01T05:06:23.000Z,5.45
2023-05-01T05:07:23.000Z,5.46
2023-05-01T05:08:23.000Z,5.49
2023-05-01T05:09:23.000Z,5.56
2023-05-01T05:10:23.000Z,5.52
2023-05-01T05:11:23.000Z,5.63
2023-05-01T05:12:23.000Z,5.60
2023-05-01T05:13:24.000Z,5.64
2023-05-01T05:14:24.000Z,5.71
2023-05-01T05:15:24.000Z,5.74
2023-05-01T05:16:24.000Z,5.82
2023-05-01T05:17:24.000Z,5.82
2023-05-01T05:18:24.000Z,5.88
2023-05-01T05:19:24.000Z,5.92
2023-05-01T05:20:24.000Z,5.93
2023-05-01T05:21:24.000Z,5.96
2023-05-01T05:22:24.000Z,6.06
2023-05-01T05:23:24.000Z,6.06
2023-05-01T05:24:24.000Z,6.07
2023-05-01T05:25:24.000Z,6.13
2023-05-01T05:26:24.000Z,6.21
2023-05-01T05:27:24.000Z,6.26
2023-05-01T05:28:24.000Z,6.30
2023-05-01T05:29:24.000Z,6.35
2023-05-01T05:30:24.000Z,6.41
2023-05-01T05:31:24.000Z,6.43
2023-05-01T05:32:24.000Z,6.48
2023-05-01T05:33:24.000Z,6.51
2023-05-01T05:34:24.000Z,6.56
2023-05-01T05:35:24.000Z,6.68
2023-05-01T05:36:24.000Z,6.73
2023-05-01T05:37:25.000Z,6.76
2023-05-01T05:38:25.000Z,6.84
2023-05-01T05:39:25.000Z,6.84
2023-05-01T05:40:25.000Z,6.87
2023-05-01T05:41:25.000Z,6.91
2023-05-01T05:42:25.000Z,6.98
2023-05-01T05:43:25.000Z,7.04
2023-05-01T05:44:25.000Z,7.07
2023-05-01T05:45:25.000Z,7.09
2023-05-01T05:46:25.000Z,7.13
2023-05-01T05:47:25.000Z,7.16
2023-05-01T05:48:25.000Z,7.22
2023-05-01T05:49:25.000Z,7.22
2023-05-01T05:50:25.000Z,7.34
2023-05-01T05:51:25.000Z,7.37
2023-05-01T05:52:25.000Z,7.41
2023-05-01T05:53:25.000Z,7.41
2023-05-01T05:54:25.000Z,7.44
2023-05-01T05:55:25.000Z,7.47
2023-05-01T05:56:25.000Z,7.45
2023-05-01T05:57:25.000Z,7.52
2023-05-01T05:58:25.000Z,7.56
2023-05-01T05:59:25.000Z,7.55
2023-05-01T06:00:25.000Z,7.58
2023-05-01T06:01:25.000Z,7.58
2023-05-01T06:02:25.000Z,7.60
2023-05-01T06:03:25.000Z,7.59
2023-05-01T06:04:25.000Z,7.60
2023-05-01T06:05:25.000Z,7.66
2023-05-01T06:06:25.000Z,7.71
2023-05-01T06:07:25.000Z,7.72
2023-05-01T06:08:26.000Z,7.75
2023-05-01T06:09:26.000Z,7.79
2023-05-01T06:10:26.000Z,7.84
2023-05-01T06:11:26.000Z,7.92
2023-05-01T06:12:26.000Z,7.92
2023-05-01T06:13:26.000Z,7.97
2023-05-01T06:14:26.000Z,7.96
2023-05-01T06:15:26.000Z,8.00
2023-05-01T06:16:26.000Z,8.08
2023-05-01T06:17:26.000Z,8.03
2023-05-01T06:18:26.000Z,8.04
2023-05-01T06:19:26.000Z,8.10
2023-05-01T06:20:26.000Z,8.17
2023-05-01T06:21:26.000Z,8.15
2023-05-01T06:22:26.000Z,8.18
2023-05-01T06:23:26.000Z,8.25
2023-05-01T06:24:26.000Z,8.22
2023-05-01T06:25:26.000Z,8.28
2023-05-01T06:26:26.000Z,8.30
2023-05-01T06:27:26.000Z,8.37
2023-05-01T06:28:26.000Z,8.39
2023-05-01T06:29:26.000Z,8.42
2023-05-01T06:30:26.000Z,8.53
2023-05-01T06:31:26.000Z,8.55
2023-05-01T06:32:26.000Z,8.55
2023-05-01T06:33:26.000Z,8.63
2023-05-01T06:34:26.000Z,8.66
2023-05-01T06:35:26.000Z,8.76
2023-05-01T06:36:26.000Z,8.81
2023-05-01T06:37:26.000Z,8.90
2023-05-01T06:38:26.000Z,8.96
2023-05-01T06:39:26.000Z,9.02
2023-05-01T06:40:26.000Z,9.05
2023-05-01T06:41:26.000Z,9.16
2023-05-01T06:42:26.000Z,9.20
2023-05-01T06:43:26.000Z,9.25
2023-05-01T06:44:26.000Z,9.34
2023-05-01T06:45:26.000Z,9.34
2023-05-01T06:46:26.000Z,9.40
2023-05-01T06:47:26.000Z,9.45
2023-05-01T06:48:26.000Z,9.46
2023-05-01T06:49:26.000Z,9.56
2023-05-01T06:50:26.000Z,9.60
2023-05-01T06:51:26.000Z,9.61
2023-05-01T06:52:26.000Z,9.66
2023-05-01T06:53:26.000Z,9.67
2023-05-01T06:54:26.000Z,9.75
2023-05-01T06:55:26.000Z,9.78
2023-05-01T06:56:26.000Z,9.82
2023-05-01T06:57:26.000Z,9.88
2023-05-01T06:58:26.000Z,9.96
2023-05-01T06:59:26.000Z,10.01
2023-05-01T07:00:26.000Z,10.04
2023-05-01T07:01:26.000Z,10.09
2023-05-01T07:02:26.000Z,10.10
2023-05-01T07:03:26.000Z,10.15
2023-05-01T07:04:26.000Z,10.15
2023-05-01T07:05:26.000Z,10.12
2023-05-01T07:06:26.000Z,10.18
2023-05-01T07:07:26.000Z,10.24
2023-05-01T07:08:26.000Z,10.28
2023-05-01T07:09:26.000Z,10.36
2023-05-01T07:10:26.000Z,10.43
2023-05-01T07:11:26.000Z,10.44
2023-05-01T07:12:26.000Z,10.56
2023-05-01T07:13:26.000Z,10.66
2023-05-01T07:14:26.000Z,10.74
2023-05-01T07:15:26.000Z,10.77
2023-05-01T07:16:26.000Z,10.81
2023-05-01T07:17:26.000Z,10.88
2023-05-01T07:18:26.000Z,10.88
2023-05-01T07:19:26.000Z,10.94
2023-05-01T07:20:26.000Z,10.98
2023-05-01T07:21:26.000Z,11.03
2023-05-01T07:22:26.000Z,11.03
2023-05-01T07:23:26.000Z,10.99
2023-05-01T07:24:26.000Z,10.95
2023-05-01T07:25:26.000Z,10.92
2023-05-01T07:26:26.000Z,10.88
2023-05-01T07:27:26.000Z,10.88
2023-05-01T07:28:26.000Z,10.92
2023-05-01T07:29:26.000Z,10.94
2023-05-01T07:30:26.000Z,10.96
2023-05-01T07:31:26.000Z,10.99
2023-05-01T07:32:26.000Z,10.99
2023-05-01T07:33:26.000Z,11.03
2023-05-01T07:34:26.000Z,11.06
2023-05-01T07:35:26.000Z,11.09
2023-05-01T07:36:26.000Z,11.14
2023-05-01T07:37:26.000Z,11.19
2023-05-01T07:38:26.000Z,11.19
2023-05-01T07:39:26.000Z,11.25
2023-05-01T07:40:26.000Z,11.28
2023-05-01T07:41:26.000Z,11.25
2023-05-01T07:42:26.000Z,11.29
2023-05-01T07:43:26.000Z,11.31
2023-05-01T07:44:26.000Z,11.32
2023-05-01T07:45:26.000Z,11.32
2023-05-01T07:46:26.000Z,11.39
2023-05-01T07:47:26.000Z,11.39
2023-05-01T07:48:26.000Z,11.39
2023-05-01T07:49:26.000Z,11.43
2023-05-01T07:50:26.000Z,11.49
2023-05-01T07:51:26.000Z,11.52
2023-05-01T07:52:26.000Z,11.59
2023-05-01T07:53:26.000Z,11.67
2023-05-01T07:54:26.000Z,11.68
2023-05-01T07:55:26.000Z,11.72
2023-05-01T07:56:26.000Z,11.78
2023-05-01T07:57:26.000Z,11.82
2023-05-01T07:58:26.000Z,11.89
2023-05-01T07:59:26.000Z,11.93
2023-05-01T08:00:26.000Z,12.06
2023-05-01T08:01:26.000Z,12.11
2023-05-01T08:02:26.000Z,12.13
2023-05-01T08:03:26.000Z,12.20
2023-05-01T08:04:26.000Z,12.26
2023-05-01T08:05:26.000Z,12.31
2023-05-01T08:06:26.000Z,12.34
2023-05-01T08:07:26.000Z,12.42
2023-05-01T08:08:26.000Z,12.46
2023-05-01T08:09:26.000Z,12.51
2023-05-01T08:10:26.000Z,12.46
2023-05-01T08:11:26.000Z,12.48
2023-05-01T08:12:26.000Z,12.48
2023-05-01T08:13:26.000Z,12.44
2023-05-01T08:14:26.000Z,12.45
2023-05-01T08:15:26.000Z,12.46
2023-05-01T08:16:26.000Z,12.45
2023-05-01T08:17:26.000Z,12.49
2023-05-01T08:18:26.000Z,12.51
2023-05-01T08:19:26.000Z,12.59
2023-05-01T08:20:26.000Z,12.63
2023-05-01T08:21:26.000Z,12.69
2023-05-01T08:22:26.000Z,12.74
2023-05-01T08:23:26.000Z,12.74
2023-05-01T08:24:26.000Z,12.81
2023-05-01T08:25:26.000Z,12.82
2023-05-01T08:26:26.000Z,12.97
2023-05-01T08:27:26.000Z,13.02
2023-05-01T08:28:26.000Z,13.07
2023-05-01T08:29:26.000Z,13.07
2023-05-01T08:30:26.000Z,13.04
2023-05-01T08:31:25.000Z,13.06
2023-05-01T08:32:25.000Z,13.00
2023-05-01T08:33:25.000Z,13.04
2023-05-01T08:34:25.000Z,13.04
2023-05-01T08:35:25.000Z,13.12
2023-05-01T08:36:25.000Z,13.11
2023-05-01T08:37:25.000Z,13.12
2023-05-01T08:38:25.000Z,13.15
2023-05-01T08:39:25.000Z,13.24
2023-05-01T08:40:25.000Z,13.24
2023-05-01T08:41:25.000Z,13.27
2023-05-01T08:42:25.000Z,13.38
2023-05-01T08:43:25.000Z,13.46
2023-05-01T08:44:25.000Z,13.56
2023-05-01T08:45:25.000Z,13.59
2023-05-01T08:46:25.000Z,13.55
2023-05-01T08:47:25.000Z,13.54
2023-05-01T08:48:25.000Z,13.49
2023-05-01T08:49:25.000Z,13.52
2023-05-01T08:50:25.000Z,13.55
2023-05-01T08:51:25.000Z,13.70
2023-05-01T08:52:25.000Z,13.73
2023-05-01T08:53:25.000Z,13.69
2023-05-01T08:54:25.000Z,13.67
2023-05-01T08:55:25.000Z,13.73
2023-05-01T08:56:25.000Z,13.76
2023-05-01T08:57:25.000Z,13.79
2023-05-01T08:58:25.000Z,13.76
2023-05-01T08:59:25.000Z,13.77
2023-05-01T09:00:25.000Z,13.77
2023-05-01T09:01:25.000Z,13.80
2023-05-01T09:02:25.000Z,13.84
2023-05-01T09:03:25.000Z,13.88
2023-05-01T09:04:25.000Z,13.91
2023-05-01T09:05:25.000Z,13.95
2023-05-01T09:06:25.000Z,14.04
2023-05-01T09:07:25.000Z,14.20
2023-05-01T09:08:25.000Z,14.28
2023-05-01T09:09:24.000Z,14.29
2023-05-01T09:10:24.000Z,14.38
2023-05-01T09:11:24.000Z,14.44
2023-05-01T09:12:24.000Z,14.39
2023-05-01T09:13:24.000Z,14.37
2023-05-01T09:14:24.000Z,14.34
2023-05-01T09:15:24.000Z,14.28
2023-05-01T09:16:24.000Z,14.24
2023-05-01T09:17:24.000Z,14.28
2023-05-01T09:18:24.000Z,14.29
2023-05-01T09:19:24.000Z,14.34
2023-05-01T09:20:24.000Z,14.47
2023-05-01T09:21:24.000Z,14.52
2023-05-01T09:22:24.000Z,14.54
2023-05-01T09:23:24.000Z,14.67
2023-05-01T09:24:24.000Z,14.80
2023-05-01T09:25:24.000Z,14.86
2023-05-01T09:26:24.000Z,14.88
2023-05-01T09:27:24.000Z,14.90
2023-05-01T09:28:24.000Z,14.88
2023-05-01T09:29:24.000Z,14.98
2023-05-01T09:30:24.000Z,15.03
2023-05-01T09:31:24.000Z,15.11
2023-05-01T09:32:24.000Z,15.13
2023-05-01T09:33:24.000Z,15.09
2023-05-01T09:34:24.000Z,15.17
2023-05-01T09:35:24.000Z,15.31
2023-05-01T09:36:23.000Z,15.41
2023-05-01T09:37:23.000Z,15.54
2023-05-01T09:38:23.000Z,15.66
2023-05-01T09:39:23.000Z,15.78
2023-05-01T09:40:23.000Z,15.84
2023-05-01T09:41:23.000Z,15.96
2023-05-01T09:42:23.000Z,16.04
2023-05-01T09:43:23.000Z,16.06
2023-05-01T09:44:23.000Z,16.00
2023-05-01T09:45:23.000Z,16.00
2023-05-01T09:46:23.000Z,16.06
2023-05-01T09:47:23.000Z,16.12
2023-05-01T09:48:23.000Z,16.22
2023-05-01T09:49:23.000Z,16.18
2023-05-01T09:50:23.000Z,16.18
2023-05-01T09:51:23.000Z,16.14
2023-05-01T09:52:23.000Z,16.14
2023-05-01T09:53:23.000Z,16.06
2023-05-01T09:54:23.000Z,16.03
2023-05-01T09:55:22.000Z,16.07
2023-05-01T09:56:22.000Z,16.11
2023-05-01T09:57:22.000Z,16.18
2023-05-01T09:58:22.000Z,16.26
2023-05-01T09:59:22.000Z,16.31
2023-05-01T10:00:22.000Z,16.38
2023-05-01T10:01:22.000Z,16.45
2023-05-01T10:02:22.000Z,16.56
2023-05-01T10:03:22.000Z,16.60
2023-05-01T10:04:22.000Z,16.67
2023-05-01T10:05:22.000Z,16.67
2023-05-01T10:06:22.000Z,16.70
2023-05-01T10:07:22.000Z,16.67
2023-05-01T10:08:22.000Z,16.59
2023-05-01T10:09:22.000Z,16.56
2023-05-01T10:10:22.000Z,16.62
2023-05-01T10:11:22.000Z,16.68
2023-05-01T10:12:21.000Z,16.60
2023-05-01T10:13:21.000Z,16.62
2023-05-01T10:14:21.000Z,16.59
2023-05-01T10:15:21.000Z,16.60
2023-05-01T10:16:21.000Z,16.63
2023-05-01T10:17:21.000Z,16.59
2023-05-01T10:18:21.000Z,16.62
2023-05-01T10:19:21.000Z,16.59
2023-05-01T10:20:21.000Z,16.60
2023-05-01T10:21:21.000Z,16.63
2023-05-01T10:22:21.000Z,16.67
2023-05-01T10:23:21.000Z,16.67
2023-05-01T10:24:21.000Z,16.68
2023-05-01T10:25:21.000Z,16.75
2023-05-01T10:26:21.000Z,16.77
2023-05-01T10:27:21.000Z,16.80
2023-05-01T10:28:20.000Z,16.85
2023-05-01T10:29:20.000Z,16.81
2023-05-01T10:30:20.000Z,16.81
2023-05-01T10:31:20.000Z,16.86
2023-05-01T10:32:20.000Z,16.98
2023-05-01T10:33:20.000Z,16.99
2023-05-01T10:34:20.000Z,17.06
2023-05-01T10:35:20.000Z,17.06
2023-05-01T10:36:20.000Z,17.11
2023-05-01T10:37:20.000Z,17.08
2023-05-01T10:38:20.000Z,17.07
2023-05-01T10:39:20.000Z,17.03
2023-05-01T10:40:20.000Z,17.03
2023-05-01T10:41:20.000Z,17.06
2023-05-01T10:42:19.000Z,17.06
2023-05-01T10:43:19.000Z,17.00
2023-05-01T10:44:19.000Z,17.07
2023-05-01T10:45:19.000Z,17.11
2023-05-01T10:46:19.000Z,17.18
2023-05-01T10:47:19.000Z,17.17
2023-05-01T10:48:19.000Z,17.17
2023-05-01T10:49:19.000Z,17.29
2023-05-01T10:50:19.000Z,17.36
2023-05-01T10:51:19.000Z,17.44
2023-05-01T10:52:19.000Z,17.43
2023-05-01T10:53:19.000Z,17.38
2023-05-01T10:54:19.000Z,17.41
2023-05-01T10:55:19.000Z,17.43
2023-05-01T10:56:19.000Z,17.44
2023-05-01T10:57:18.000Z,17.53
2023-05-01T10:58:18.000Z,17.50
2023-05-01T10:59:18.000Z,17.55
2023-05-01T11:00:18.000Z,17.63
2023-05-01T11:01:18.000Z,17.67
2023-05-01T11:02:18.000Z,17.69
2023-05-01T11:03:18.000Z,17.67
2023-05-01T11:04:18.000Z,17.70
2023-05-01T11:05:18.000Z,17.78
2023-05-01T11:06:18.000Z,17.87
2023-05-01T11:07:18.000Z,17.94
2023-05-01T11:08:18.000Z,17.94
2023-05-01T11:09:18.000Z,17.94
2023-05-01T11:10:18.000Z,17.97
2023-05-01T11:11:17.000Z,17.99
2023-05-01T11:12:17.000Z,18.03
2023-05-01T11:13:17.000Z,17.99
2023-05-01T11:14:17.000Z,18.03
2023-05-01T11:15:17.000Z,18.04
2023-05-01T11:16:17.000Z,18.10
2023-05-01T11:17:17.000Z,18.10
2023-05-01T11:18:17.000Z,18.15
2023-05-01T11:19:17.000Z,18.21
2023-05-01T11:20:17.000Z,18.22
2023-05-01T11:21:17.000Z,18.29
2023-05-01T11:22:17.000Z,18.34
2023-05-01T11:23:17.000Z,18.37
2023-05-01T11:24:16.000Z,18.39
2023-05-01T11:25:16.000Z,18.40
2023-05-01T11:26:16.000Z,18.40
2023-05-01T11:27:16.000Z,18.36
2023-05-01T11:28:16.000Z,18.37
2023-05-01T11:29:16.000Z,18.33
2023-05-01T11:30:16.000Z,18.34
2023-05-01T11:31:16.000Z,18.33
2023-05-01T11:32:16.000Z,18.34
2023-05-01T11:33:16.000Z,18.33
2023-05-01T11:34:16.000Z,18.36
2023-05-01T11:35:16.000Z,18.33
2023-05-01T11:36:16.000Z,18.46
2023-05-01T11:37:15.000Z,18.54
2023-05-01T11:38:15.000Z,18.57
2023-05-01T11:39:15.000Z,18.50
2023-05-01T11:40:15.000Z,18.54
2023-05-01T11:41:15.000Z,18.50
2023-05-01T11:42:15.000Z,18.47
2023-05-01T11:43:15.000Z,18.54
2023-05-01T11:44:15.000Z,18.46
2023-05-01T11:45:15.000Z,18.49
2023-05-01T11:46:15.000Z,18.46
2023-05-01T11:47:15.000Z,18.52
2023-05-01T11:48:15.000Z,18.47
2023-05-01T11:49:14.000Z,18.37
2023-05-01T11:50:14.000Z,18.36
2023-05-01T11:51:14.000Z,18.25
2023-05-01T11:52:14.000Z,18.13
2023-05-01T11:53:14.000Z,18.12
2023-05-01T11:54:14.000Z,18.02
2023-05-01T11:55:14.000Z,17.99
2023-05-01T11:56:14.000Z,17.92
2023-05-01T11:57:14.000Z,17.95
2023-05-01T11:58:14.000Z,17.97
2023-05-01T11:59:14.000Z,17.97
2023-05-01T12:00:14.000Z,17.99
2023-05-01T12:01:14.000Z,17.99
2023-05-01T12:02:13.000Z,17.97
2023-05-01T12:03:13.000Z,18.02
2023-05-01T12:04:13.000Z,17.99
2023-05-01T12:05:13.000Z,17.99
2023-05-01T12:06:13.000Z,18.03
2023-05-01T12:07:13.000Z,18.04
2023-05-01T12:08:13.000Z,18.03
2023-05-01T12:09:13.000Z,18.06
2023-05-01T12:10:13.000Z,18.15
2023-05-01T12:11:13.000Z,18.18
2023-05-01T12:12:13.000Z,18.25
2023-05-01T12:13:13.000Z,18.37
2023-05-01T12:14:13.000Z,18.52
2023-05-01T12:15:12.000Z,18.61
2023-05-01T12:16:12.000Z,18.64
2023-05-01T12:17:12.000Z,18.67
2023-05-01T12:18:12.000Z,18.64
2023-05-01T12:19:12.000Z,18.67
2023-05-01T12:20:12.000Z,18.73
2023-05-01T12:21:12.000Z,18.74
2023-05-01T12:22:12.000Z,18.80
2023-05-01T12:23:12.000Z,18.80
2023-05-01T12:24:12.000Z,18.84
2023-05-01T12:25:12.000Z,18.82
2023-05-01T12:26:12.000Z,18.83
2023-05-01T12:27:11.000Z,18.86
2023-05-01T12:28:11.000Z,18.95
2023-05-01T12:29:11.000Z,19.01
2023-05-01T12:30:11.000Z,18.94
2023-05-01T12:31:11.000Z,18.94
2023-05-01T12:32:11.000Z,18.98
2023-05-01T12:33:11.000Z,18.91
2023-05-01T12:34:11.000Z,18.91
2023-05-01T12:35:11.000Z,18.94
2023-05-01T12:36:11.000Z,19.02
2023-05-01T12:37:11.000Z,19.13
2023-05-01T12:38:11.000Z,19.21
2023-05-01T12:39:11.000Z,19.17
2023-05-01T12:40:10.000Z,19.17
2023-05-01T12:41:10.000Z,19.20
2023-05-01T12:42:10.000Z,19.20
2023-05-01T12:43:10.000Z,19.23
2023-05-01T12:44:10.000Z,19.29
2023-05-01T12:45:10.000Z,19.33
2023-05-01T12:46:10.000Z,19.33
2023-05-01T12:47:10.000Z,19.28
2023-05-01T12:48:10.000Z,19.25
2023-05-01T12:49:10.000Z,19.17
2023-05-01T12:50:10.000Z,19.18
2023-05-01T12:51:10.000Z,19.28
2023-05-01T12:52:09.000Z,19.36
2023-05-01T12:53:09.000Z,19.32
2023-05-01T12:54:09.000Z,19.36
2023-05-01T12:55:09.000Z,19.38
2023-05-01T12:56:09.000Z,19.35
2023-05-01T12:57:09.000Z,19.33
2023-05-01T12:58:09.000Z,19.33
2023-05-01T12:59:09.000Z,19.38
2023-05-01T13:00:09.000Z,19.40
2023-05-01T13:01:09.000Z,19.39
2023-05-01T13:02:09.000Z,19.39
2023-05-01T13:03:09.000Z,19.43
2023-05-01T13:04:08.000Z,19.51
2023-05-01T13:05:08.000Z,19.58
2023-05-01T13:06:08.000Z,19.65